createdAt,value
2022-11-24T00:00:13.905Z,95355.72
2022-11-24T00:01:20.931Z,95350.63
2022-11-24T00:02:23.349Z,95361.00
2022-11-24T00:03:28.388Z,95358.44
2022-11-24T00:04:30.869Z,95356.75
2022-11-24T00:05:38.563Z,95367.81
2022-11-24T00:06:40.885Z,95362.78
2022-11-24T00:07:45.519Z,95362.53
2022-11-24T00:08:47.661Z,95359.31
2022-11-24T00:09:52.374Z,95357.50
2022-11-24T00:10:54.495Z,95350.00
2022-11-24T00:12:01.690Z,95356.88
2022-11-24T00:13:03.693Z,95355.84
2022-11-24T00:14:09.531Z,95354.16
2022-11-24T00:15:11.619Z,95356.88
2022-11-24T00:16:18.243Z,95359.31
2022-11-24T00:17:20.346Z,95355.72
2022-11-24T00:18:25.039Z,95356.75
2022-11-24T00:19:29.835Z,95358.53
2022-11-24T00:20:31.854Z,95364.59
2022-11-24T00:21:36.656Z,95355.34
2022-11-24T00:22:38.886Z,95354.56
2022-11-24T00:23:43.864Z,95355.53
2022-11-24T00:24:45.966Z,95351.22
2022-11-24T00:25:50.599Z,95358.25
2022-11-24T00:26:52.833Z,95353.16
2022-11-24T00:28:00.247Z,95357.47
2022-11-24T00:29:05.145Z,95355.81
2022-11-24T00:30:12.534Z,95357.28
2022-11-24T00:31:17.653Z,95356.38
2022-11-24T00:32:22.416Z,95354.84
2022-11-24T00:33:24.521Z,95356.59
2022-11-24T00:34:29.250Z,95352.97
2022-11-24T00:35:31.463Z,95360.81
2022-11-24T00:36:40.293Z,95353.16
2022-11-24T00:37:42.385Z,95358.28
2022-11-24T00:38:47.803Z,95364.22
2022-11-24T00:39:49.809Z,95368.59
2022-11-24T00:40:55.059Z,95366.00
2022-11-24T00:41:57.253Z,95362.63
2022-11-24T00:43:04.492Z,95366.16
2022-11-24T00:44:07.054Z,95363.38
2022-11-24T00:45:14.170Z,95369.38
2022-11-24T00:46:16.540Z,95375.56
2022-11-24T00:47:21.448Z,95374.63
2022-11-24T00:48:23.719Z,95371.28
2022-11-24T00:49:28.406Z,95376.44
2022-11-24T00:50:30.501Z,95379.91
2022-11-24T00:51:35.400Z,95377.34
2022-11-24T00:52:37.883Z,95379.09
2022-11-24T00:53:43.603Z,95379.84
2022-11-24T00:54:45.775Z,95381.66
2022-11-24T00:55:52.094Z,95387.53
2022-11-24T00:56:54.157Z,95380.78
2022-11-24T00:57:58.894Z,95376.50
2022-11-24T00:59:03.748Z,95385.94
2022-11-24T01:00:10.156Z,95386.59
2022-11-24T01:01:13.963Z,95392.78
2022-11-24T01:02:18.796Z,95390.72
2022-11-24T01:03:21.614Z,95388.31
2022-11-24T01:04:26.520Z,95389.03
2022-11-24T01:05:28.623Z,95392.63
2022-11-24T01:06:35.754Z,95403.06
2022-11-24T01:07:38.845Z,95391.94
2022-11-24T01:08:44.781Z,95398.03
2022-11-24T01:09:46.925Z,95399.72
2022-11-24T01:10:51.559Z,95401.19
2022-11-24T01:12:02.930Z,95399.56
2022-11-24T01:13:12.626Z,95401.25
2022-11-24T01:14:17.535Z,95414.16
2022-11-24T01:15:22.450Z,95409.72
2022-11-24T01:16:26.808Z,95413.91
2022-11-24T01:17:31.766Z,95410.59
2022-11-24T01:18:34.096Z,95415.53
2022-11-24T01:19:38.843Z,95410.50
2022-11-24T01:20:40.908Z,95420.09
2022-11-24T01:21:49.584Z,95415.91
2022-11-24T01:22:51.681Z,95416.03
2022-11-24T01:23:56.360Z,95420.41
2022-11-24T01:24:58.410Z,95420.41
2022-11-24T01:26:03.160Z,95423.09
2022-11-24T01:27:10.463Z,95421.69
2022-11-24T01:28:13.873Z,95425.56
2022-11-24T01:29:21.057Z,95429.38
2022-11-24T01:30:23.255Z,95430.44
2022-11-24T01:31:29.168Z,95422.75
2022-11-24T01:32:33.273Z,95422.06
2022-11-24T01:33:39.371Z,95432.16
2022-11-24T01:34:41.469Z,95430.34
2022-11-24T01:35:46.152Z,95435.63
2022-11-24T01:36:50.818Z,95435.69
2022-11-24T01:37:53.065Z,95431.22
2022-11-24T01:38:57.763Z,95435.41
2022-11-24T01:40:00.025Z,95432.16
2022-11-24T01:41:06.499Z,95443.16
2022-11-24T01:42:09.325Z,95434.53
2022-11-24T01:43:19.865Z,95434.53
2022-11-24T01:44:31.892Z,95438.59
2022-11-24T01:45:36.772Z,95439.44
2022-11-24T01:46:46.266Z,95435.84
2022-11-24T01:47:48.426Z,95442.75
2022-11-24T01:48:58.967Z,95438.34
2022-11-24T01:50:03.312Z,95447.78
2022-11-24T01:51:15.985Z,95444.47
2022-11-24T01:52:25.211Z,95444.19
2022-11-24T01:53:27.364Z,95450.13
2022-11-24T01:54:36.357Z,95450.13
2022-11-24T01:55:40.463Z,95442.41
2022-11-24T01:56:49.180Z,95454.50
2022-11-24T01:57:54.837Z,95441.63
2022-11-24T01:59:02.154Z,95444.78
2022-11-24T02:00:10.464Z,95452.69
2022-11-24T02:01:15.734Z,95451.72
2022-11-24T02:02:18.922Z,95455.19
2022-11-24T02:03:26.993Z,95449.91
2022-11-24T02:04:33.589Z,95452.56
2022-11-24T02:05:44.569Z,95445.72
2022-11-24T02:06:47.576Z,95454.31
2022-11-24T02:07:53.962Z,95464.50
2022-11-24T02:09:00.263Z,95453.25
2022-11-24T02:10:10.460Z,95459.31
2022-11-24T02:11:12.571Z,95461.75
2022-11-24T02:12:17.392Z,95466.94
2022-11-24T02:13:20.334Z,95456.63
2022-11-24T02:14:27.679Z,95462.59
2022-11-24T02:15:32.850Z,95460.94
2022-11-24T02:16:39.932Z,95459.25
2022-11-24T02:17:42.020Z,95456.50
2022-11-24T02:18:47.260Z,95462.72
2022-11-24T02:19:54.494Z,95466.31
2022-11-24T02:20:59.725Z,95466.31
2022-11-24T02:22:03.134Z,95469.00
2022-11-24T02:23:18.621Z,95468.16
2022-11-24T02:24:25.530Z,95474.22
2022-11-24T02:25:40.029Z,95475.75
2022-11-24T02:26:46.699Z,95470.63
2022-11-24T02:27:54.121Z,95471.56
2022-11-24T02:28:57.119Z,95478.50
2022-11-24T02:30:02.148Z,95486.88
2022-11-24T02:31:06.220Z,95475.06
2022-11-24T02:32:14.871Z,95473.38
2022-11-24T02:33:17.661Z,95479.25
2022-11-24T02:34:22.305Z,95477.50
2022-11-24T02:35:27.231Z,95477.63
2022-11-24T02:36:31.996Z,95484.56
2022-11-24T02:37:34.208Z,95480.31
2022-11-24T02:38:39.396Z,95478.63
2022-11-24T02:39:41.491Z,95480.25
2022-11-24T02:40:50.649Z,95479.53
2022-11-24T02:42:00.846Z,95483.03
2022-11-24T02:43:10.851Z,95487.38
2022-11-24T02:44:15.975Z,95482.13
2022-11-24T02:45:20.990Z,95471.97
2022-11-24T02:46:23.462Z,95476.97
2022-11-24T02:47:28.403Z,95481.47
2022-11-24T02:48:30.457Z,95485.81
2022-11-24T02:49:35.195Z,95477.94
2022-11-24T02:50:37.948Z,95482.28
2022-11-24T02:51:42.581Z,95475.53
2022-11-24T02:52:44.680Z,95489.31
2022-11-24T02:53:49.348Z,95481.59
2022-11-24T02:54:51.408Z,95487.44
2022-11-24T02:55:56.005Z,95484.94
2022-11-24T02:57:00.839Z,95484.16
2022-11-24T02:58:05.592Z,95481.59
2022-11-24T02:59:10.611Z,95488.34
2022-11-24T03:00:16.357Z,95485.00
2022-11-24T03:01:18.694Z,95486.69
2022-11-24T03:02:23.738Z,95486.84
2022-11-24T03:03:26.364Z,95488.50
2022-11-24T03:04:31.158Z,95486.69
2022-11-24T03:05:33.365Z,95487.69
2022-11-24T03:06:38.126Z,95493.78
2022-11-24T03:07:40.246Z,95494.53
2022-11-24T03:08:45.023Z,95492.81
2022-11-24T03:09:47.054Z,95494.56
2022-11-24T03:10:52.019Z,95495.53
2022-11-24T03:11:54.125Z,95492.16
2022-11-24T03:13:01.415Z,95484.53
2022-11-24T03:14:03.763Z,95496.56
2022-11-24T03:15:10.881Z,95492.28
2022-11-24T03:16:13.200Z,95491.59
2022-11-24T03:17:18.078Z,95490.94
2022-11-24T03:18:20.348Z,95496.03
2022-11-24T03:19:25.007Z,95496.06
2022-11-24T03:20:27.162Z,95501.28
2022-11-24T03:21:31.882Z,95497.22
2022-11-24T03:22:33.974Z,95495.28
2022-11-24T03:23:43.956Z,95499.78
2022-11-24T03:24:46.015Z,95496.03
2022-11-24T03:25:50.684Z,95494.31
2022-11-24T03:26:52.965Z,95504.69
2022-11-24T03:28:01.472Z,95499.59
